Date,TemperatureHighF,TemperatureAvgF,TemperatureLowF,DewpointHighF,DewpointAvgF,DewpointLowF,HumidityHigh,HumidityAvg,HumidityLow,PressureMaxIn,PressureMinIn,WindSpeedMaxMPH,WindSpeedAvgMPH,GustSpeedMaxMPH,PrecipitationSumIn
2013-12-1,55.2,36.9,24.4,35.7,27.1,18.9,81,69,47,30.33,30.00,4,0,4,0.00
2013-12-2,56.1,42.6,29.8,38.2,32.3,24.7,83,68,49,30.00,29.80,3,0,5,0.00
2013-12-3,59.5,49.9,41.9,48.2,41.8,33.7,81,74,64,29.95,29.85,4,0,6,0.00
2013-12-4,56.5,53.4,50.5,52.0,49.4,46.0,89,86,81,30.06,29.94,2,0,2,0.00
2013-12-5,64.8,58.8,52.9,61.4,55.4,49.7,91,88,84,30.09,29.98,5,0,5,0.35
2013-12-6,72.1,67.2,58.8,63.0,60.8,54.5,91,80,72,30.03,29.93,11,2,17,0.58
2013-12-7,58.8,53.0,42.4,55.1,45.6,34.9,89,76,64,30.38,29.97,6,1,7,0.09
2013-12-8,42.4,37.0,34.3,35.4,32.2,30.0,85,83,76,30.38,30.21,4,0,4,0.15
2013-12-9,45.0,39.7,34.5,40.4,35.8,30.4,87,86,84,30.23,30.01,5,0,5,0.54
2013-12-10,51.3,41.9,29.3,45.7,34.6,22.2,89,76,50,30.27,29.89,10,1,20,0.22
2013-12-11,49.5,35.6,24.6,28.3,23.2,18.8,80,62,38,30.39,30.24,4,0,7,0.02
2013-12-12,44.4,34.9,27.0,22.6,18.5,12.7,67,52,30,30.36,30.24,6,0,9,0.00
2013-12-13,49.8,34.4,22.6,28.0,21.6,15.9,77,61,38,30.32,30.20,2,0,4,0.00
2013-12-14,38.7,37.3,35.4,34.4,31.3,27.6,86,79,68,30.23,29.77,6,0,6,0.84
2013-12-15,47.1,38.6,31.3,37.0,30.8,24.1,87,74,55,30.06,29.72,9,0,16,0.02
2013-12-16,55.9,42.8,31.8,33.5,29.1,24.5,76,60,41,30.12,30.03,6,1,9,0.00
2013-12-17,60.4,45.3,30.4,37.0,30.9,23.2,81,59,39,30.09,29.87,19,2,26,0.00
2013-12-18,49.1,38.6,31.3,23.3,18.6,16.4,60,45,28,30.24,30.04,8,0,13,0.00
2013-12-19,59.4,40.8,26.8,34.5,24.9,18.7,75,55,37,30.26,30.15,6,0,8,0.00
2013-12-20,58.8,45.9,34.0,39.9,33.4,25.9,77,62,47,30.20,30.09,4,0,7,0.00
2013-12-21,61.9,51.3,41.9,58.6,46.2,36.5,90,82,75,30.12,29.98,10,0,10,0.00
2013-12-22,64.6,60.2,56.8,60.4,56.8,53.9,91,88,85,30.06,29.95,10,1,10,2.42
2013-12-23,58.8,53.2,39.7,55.4,48.1,33.1,92,83,66,30.17,29.97,9,0,14,0.71
2013-12-24,41.7,34.7,25.9,34.1,24.4,16.6,84,67,47,30.39,30.15,14,1,19,0.02
2013-12-25,38.8,27.9,20.3,18.4,16.0,13.4,76,62,37,30.48,30.31,5,0,5,0.00
2013-12-26,51.1,32.8,21.4,29.8,21.2,15.3,79,64,38,30.32,30.19,6,0,14,0.00
2013-12-27,48.9,34.5,24.6,28.5,23.5,19.0,81,66,41,30.43,30.31,6,0,7,0.00
2013-12-28,50.2,36.8,25.0,36.8,28.4,19.4,84,73,48,30.36,30.11,4,0,6,0.22
2013-12-29,55.9,44.2,39.4,46.5,37.9,33.0,87,79,62,30.11,29.75,18,1,20,0.76
2013-12-30,52.2,43.9,36.3,39.2,35.5,30.6,82,72,59,30.10,29.93,6,0,10,0.02
2013-12-31,48.2,38.4,30.0,35.5,25.4,20.2,79,61,37,30.32,30.08,11,1,18,0.00